sensor_id;sensor_type;location;lat;lon;timestamp;P1;durP1;ratioP1;P2;durP2;ratioP2
48375;SDS011;34178;50.904;11.560;2023-11-21T00:00:48;6.40;;;1.20;;
48375;SDS011;34178;50.904;11.560;2023-11-21T00:03:14;6.88;;;1.67;;
48375;SDS011;34178;50.904;11.560;2023-11-21T00:05:40;5.78;;;1.25;;
48375;SDS011;34178;50.904;11.560;2023-11-21T00:08:07;5.75;;;1.40;;
48375;SDS011;34178;50.904;11.560;2023-11-21T00:10:33;4.75;;;1.35;;
48375;SDS011;34178;50.904;11.560;2023-11-21T00:13:00;49.85;;;16.70;;
48375;SDS011;34178;50.904;11.560;2023-11-21T00:15:27;18.88;;;5.90;;
48375;SDS011;34178;50.904;11.560;2023-11-21T00:17:52;6.68;;;1.40;;
48375;SDS011;34178;50.904;11.560;2023-11-21T00:20:18;4.38;;;1.30;;
48375;SDS011;34178;50.904;11.560;2023-11-21T00:22:44;5.95;;;1.17;;
48375;SDS011;34178;50.904;11.560;2023-11-21T00:25:09;3.55;;;1.20;;
48375;SDS011;34178;50.904;11.560;2023-11-21T00:27:35;3.75;;;1.20;;
48375;SDS011;34178;50.904;11.560;2023-11-21T00:30:01;6.97;;;1.50;;
48375;SDS011;34178;50.904;11.560;2023-11-21T00:32:31;5.18;;;1.50;;
48375;SDS011;34178;50.904;11.560;2023-11-21T00:34:57;9.45;;;3.22;;
48375;SDS011;34178;50.904;11.560;2023-11-21T00:37:22;3.80;;;1.50;;
48375;SDS011;34178;50.904;11.560;2023-11-21T00:39:49;8.30;;;1.50;;
48375;SDS011;34178;50.904;11.560;2023-11-21T00:42:14;4.60;;;1.08;;
48375;SDS011;34178;50.904;11.560;2023-11-21T00:44:40;6.40;;;1.90;;
48375;SDS011;34178;50.904;11.560;2023-11-21T00:49:33;4.82;;;1.17;;
48375;SDS011;34178;50.904;11.560;2023-11-21T00:51:59;5.95;;;1.30;;
48375;SDS011;34178;50.904;11.560;2023-11-21T00:54:25;3.08;;;1.05;;
48375;SDS011;34178;50.904;11.560;2023-11-21T00:56:51;7.07;;;1.40;;
48375;SDS011;34178;50.904;11.560;2023-11-21T00:59:17;7.30;;;1.80;;
48375;SDS011;34178;50.904;11.560;2023-11-21T01:01:43;5.75;;;1.50;;
48375;SDS011;34178;50.904;11.560;2023-11-21T01:04:09;5.97;;;1.65;;
48375;SDS011;34178;50.904;11.560;2023-11-21T01:06:35;6.38;;;1.70;;
48375;SDS011;34178;50.904;11.560;2023-11-21T01:09:01;5.72;;;1.23;;
48375;SDS011;34178;50.904;11.560;2023-11-21T01:11:32;5.03;;;1.20;;
48375;SDS011;34178;50.904;11.560;2023-11-21T01:14:01;5.38;;;1.60;;
48375;SDS011;34178;50.904;11.560;2023-11-21T01:16:28;3.67;;;1.30;;
48375;SDS011;34178;50.904;11.560;2023-11-21T01:18:54;5.15;;;1.20;;
48375;SDS011;34178;50.904;11.560;2023-11-21T01:21:19;4.07;;;1.55;;
48375;SDS011;34178;50.904;11.560;2023-11-21T01:23:45;5.13;;;1.38;;
48375;SDS011;34178;50.904;11.560;2023-11-21T01:26:12;6.60;;;1.40;;
48375;SDS011;34178;50.904;11.560;2023-11-21T01:28:38;4.40;;;1.30;;
48375;SDS011;34178;50.904;11.560;2023-11-21T01:31:04;5.47;;;1.60;;
48375;SDS011;34178;50.904;11.560;2023-11-21T01:33:29;4.13;;;1.50;;
48375;SDS011;34178;50.904;11.560;2023-11-21T01:35:55;4.18;;;1.10;;
48375;SDS011;34178;50.904;11.560;2023-11-21T01:38:21;4.22;;;1.30;;
48375;SDS011;34178;50.904;11.560;2023-11-21T01:40:47;3.22;;;1.10;;
48375;SDS011;34178;50.904;11.560;2023-11-21T01:43:13;4.78;;;1.17;;
48375;SDS011;34178;50.904;11.560;2023-11-21T01:45:38;4.03;;;1.40;;
48375;SDS011;34178;50.904;11.560;2023-11-21T01:48:04;5.22;;;1.35;;
48375;SDS011;34178;50.904;11.560;2023-11-21T01:50:31;5.40;;;1.30;;
48375;SDS011;34178;50.904;11.560;2023-11-21T01:52:58;3.25;;;1.08;;
48375;SDS011;34178;50.904;11.560;2023-11-21T01:55:26;2.65;;;1.02;;
48375;SDS011;34178;50.904;11.560;2023-11-21T01:57:52;6.78;;;1.33;;
48375;SDS011;34178;50.904;11.560;2023-11-21T02:00:19;6.05;;;1.40;;
48375;SDS011;34178;50.904;11.560;2023-11-21T02:02:45;3.10;;;1.45;;
48375;SDS011;34178;50.904;11.560;2023-11-21T02:05:16;6.35;;;1.30;;
48375;SDS011;34178;50.904;11.560;2023-11-21T02:07:47;5.90;;;1.38;;
48375;SDS011;34178;50.904;11.560;2023-11-21T02:10:13;3.53;;;1.40;;
48375;SDS011;34178;50.904;11.560;2023-11-21T02:12:40;5.07;;;1.75;;
48375;SDS011;34178;50.904;11.560;2023-11-21T02:15:12;4.25;;;1.52;;
48375;SDS011;34178;50.904;11.560;2023-11-21T02:17:51;4.72;;;1.25;;
48375;SDS011;34178;50.904;11.560;2023-11-21T02:20:18;8.00;;;1.15;;
48375;SDS011;34178;50.904;11.560;2023-11-21T02:23:03;14.65;;;1.63;;
48375;SDS011;34178;50.904;11.560;2023-11-21T02:25:30;5.38;;;1.40;;
48375;SDS011;34178;50.904;11.560;2023-11-21T02:27:58;4.07;;;1.25;;
48375;SDS011;34178;50.904;11.560;2023-11-21T02:30:26;4.38;;;1.10;;
48375;SDS011;34178;50.904;11.560;2023-11-21T02:35:22;6.35;;;1.33;;
48375;SDS011;34178;50.904;11.560;2023-11-21T02:37:50;4.68;;;1.30;;
48375;SDS011;34178;50.904;11.560;2023-11-21T02:40:17;7.75;;;1.67;;
48375;SDS011;34178;50.904;11.560;2023-11-21T02:42:43;3.00;;;1.10;;
48375;SDS011;34178;50.904;11.560;2023-11-21T02:45:09;5.93;;;1.52;;
48375;SDS011;34178;50.904;11.560;2023-11-21T02:47:38;7.93;;;1.58;;
48375;SDS011;34178;50.904;11.560;2023-11-21T02:50:04;4.57;;;1.25;;
48375;SDS011;34178;50.904;11.560;2023-11-21T02:52:32;3.75;;;1.30;;
48375;SDS011;34178;50.904;11.560;2023-11-21T02:54:58;3.58;;;1.30;;
48375;SDS011;34178;50.904;11.560;2023-11-21T02:57:24;6.53;;;1.40;;
48375;SDS011;34178;50.904;11.560;2023-11-21T02:59:50;5.72;;;1.30;;
48375;SDS011;34178;50.904;11.560;2023-11-21T03:02:15;4.80;;;1.60;;
48375;SDS011;34178;50.904;11.560;2023-11-21T03:04:41;6.43;;;1.77;;
48375;SDS011;34178;50.904;11.560;2023-11-21T03:07:07;6.10;;;2.20;;
48375;SDS011;34178;50.904;11.560;2023-11-21T03:09:34;6.40;;;1.40;;
48375;SDS011;34178;50.904;11.560;2023-11-21T03:12:00;4.57;;;1.17;;
48375;SDS011;34178;50.904;11.560;2023-11-21T03:14:26;6.75;;;1.27;;
48375;SDS011;34178;50.904;11.560;2023-11-21T03:16:51;3.38;;;1.48;;
48375;SDS011;34178;50.904;11.560;2023-11-21T03:19:17;4.45;;;1.30;;
48375;SDS011;34178;50.904;11.560;2023-11-21T03:21:43;5.47;;;1.88;;
48375;SDS011;34178;50.904;11.560;2023-11-21T03:24:09;4.10;;;1.40;;
48375;SDS011;34178;50.904;11.560;2023-11-21T03:26:34;6.95;;;1.63;;
48375;SDS011;34178;50.904;11.560;2023-11-21T03:29:00;5.88;;;1.48;;
48375;SDS011;34178;50.904;11.560;2023-11-21T03:31:26;4.45;;;1.30;;
48375;SDS011;34178;50.904;11.560;2023-11-21T03:33:51;4.93;;;1.40;;
48375;SDS011;34178;50.904;11.560;2023-11-21T03:36:19;8.35;;;1.42;;
48375;SDS011;34178;50.904;11.560;2023-11-21T03:38:44;6.70;;;1.40;;
48375;SDS011;34178;50.904;11.560;2023-11-21T03:41:10;4.97;;;1.40;;
48375;SDS011;34178;50.904;11.560;2023-11-21T03:43:36;6.22;;;1.35;;
48375;SDS011;34178;50.904;11.560;2023-11-21T03:46:02;2.83;;;1.15;;
48375;SDS011;34178;50.904;11.560;2023-11-21T03:48:28;5.57;;;1.27;;
48375;SDS011;34178;50.904;11.560;2023-11-21T03:50:54;2.83;;;1.27;;
48375;SDS011;34178;50.904;11.560;2023-11-21T03:53:20;3.85;;;1.63;;
48375;SDS011;34178;50.904;11.560;2023-11-21T03:55:45;4.00;;;1.60;;
48375;SDS011;34178;50.904;11.560;2023-11-21T03:58:11;6.32;;;1.90;;
48375;SDS011;34178;50.904;11.560;2023-11-21T04:00:37;7.30;;;1.65;;
48375;SDS011;34178;50.904;11.560;2023-11-21T04:03:03;6.03;;;1.50;;
48375;SDS011;34178;50.904;11.560;2023-11-21T04:05:30;9.25;;;1.92;;
48375;SDS011;34178;50.904;11.560;2023-11-21T04:07:56;8.07;;;1.73;;
48375;SDS011;34178;50.904;11.560;2023-11-21T04:10:21;5.03;;;1.52;;
48375;SDS011;34178;50.904;11.560;2023-11-21T04:12:47;4.47;;;1.45;;
48375;SDS011;34178;50.904;11.560;2023-11-21T04:15:13;5.63;;;2.15;;
48375;SDS011;34178;50.904;11.560;2023-11-21T04:17:39;5.10;;;1.70;;
48375;SDS011;34178;50.904;11.560;2023-11-21T04:20:06;5.78;;;1.35;;
48375;SDS011;34178;50.904;11.560;2023-11-21T04:22:34;3.10;;;1.50;;
48375;SDS011;34178;50.904;11.560;2023-11-21T04:25:15;3.88;;;1.63;;
48375;SDS011;34178;50.904;11.560;2023-11-21T04:27:41;3.40;;;1.40;;
48375;SDS011;34178;50.904;11.560;2023-11-21T04:30:11;3.45;;;1.63;;
48375;SDS011;34178;50.904;11.560;2023-11-21T04:32:37;5.50;;;1.80;;
48375;SDS011;34178;50.904;11.560;2023-11-21T04:35:07;5.43;;;1.75;;
48375;SDS011;34178;50.904;11.560;2023-11-21T04:37:36;6.75;;;1.80;;
48375;SDS011;34178;50.904;11.560;2023-11-21T04:40:02;5.97;;;1.67;;
48375;SDS011;34178;50.904;11.560;2023-11-21T04:42:32;4.40;;;1.90;;
48375;SDS011;34178;50.904;11.560;2023-11-21T04:45:01;6.10;;;1.58;;
48375;SDS011;34178;50.904;11.560;2023-11-21T04:47:30;4.53;;;1.70;;
48375;SDS011;34178;50.904;11.560;2023-11-21T04:49:55;6.63;;;1.92;;
48375;SDS011;34178;50.904;11.560;2023-11-21T04:52:21;4.93;;;2.15;;
48375;SDS011;34178;50.904;11.560;2023-11-21T04:54:47;9.00;;;2.40;;
48375;SDS011;34178;50.904;11.560;2023-11-21T04:57:13;5.53;;;1.95;;
48375;SDS011;34178;50.904;11.560;2023-11-21T04:59:39;7.20;;;1.90;;
48375;SDS011;34178;50.904;11.560;2023-11-21T05:02:04;7.68;;;2.20;;
48375;SDS011;34178;50.904;11.560;2023-11-21T05:04:30;6.18;;;1.95;;
48375;SDS011;34178;50.904;11.560;2023-11-21T05:06:56;4.90;;;1.70;;
48375;SDS011;34178;50.904;11.560;2023-11-21T05:09:21;3.67;;;1.55;;
48375;SDS011;34178;50.904;11.560;2023-11-21T05:11:47;4.20;;;1.77;;
48375;SDS011;34178;50.904;11.560;2023-11-21T05:14:13;5.47;;;2.10;;
48375;SDS011;34178;50.904;11.560;2023-11-21T05:16:39;3.20;;;1.52;;
48375;SDS011;34178;50.904;11.560;2023-11-21T05:19:04;3.67;;;1.42;;
48375;SDS011;34178;50.904;11.560;2023-11-21T05:21:31;6.82;;;2.17;;
48375;SDS011;34178;50.904;11.560;2023-11-21T05:24:01;7.82;;;2.58;;
48375;SDS011;34178;50.904;11.560;2023-11-21T05:26:26;10.70;;;3.03;;
48375;SDS011;34178;50.904;11.560;2023-11-21T05:28:52;13.98;;;8.50;;
48375;SDS011;34178;50.904;11.560;2023-11-21T05:31:18;15.77;;;13.32;;
48375;SDS011;34178;50.904;11.560;2023-11-21T05:33:44;12.82;;;8.73;;
48375;SDS011;34178;50.904;11.560;2023-11-21T05:36:10;15.98;;;8.80;;
48375;SDS011;34178;50.904;11.560;2023-11-21T05:38:36;16.65;;;9.60;;
48375;SDS011;34178;50.904;11.560;2023-11-21T05:41:02;9.75;;;5.65;;
48375;SDS011;34178;50.904;11.560;2023-11-21T05:43:29;13.38;;;5.13;;
48375;SDS011;34178;50.904;11.560;2023-11-21T05:45:55;16.02;;;7.68;;
48375;SDS011;34178;50.904;11.560;2023-11-21T05:48:21;12.10;;;5.05;;
48375;SDS011;34178;50.904;11.560;2023-11-21T05:50:48;15.07;;;6.10;;
48375;SDS011;34178;50.904;11.560;2023-11-21T05:53:15;14.60;;;4.80;;
48375;SDS011;34178;50.904;11.560;2023-11-21T05:55:41;15.15;;;5.18;;
48375;SDS011;34178;50.904;11.560;2023-11-21T05:58:07;9.18;;;4.95;;
48375;SDS011;34178;50.904;11.560;2023-11-21T06:00:33;12.50;;;6.10;;
48375;SDS011;34178;50.904;11.560;2023-11-21T06:02:58;12.20;;;5.90;;
48375;SDS011;34178;50.904;11.560;2023-11-21T06:05:25;12.85;;;6.00;;
48375;SDS011;34178;50.904;11.560;2023-11-21T06:07:52;15.40;;;7.00;;
48375;SDS011;34178;50.904;11.560;2023-11-21T06:10:19;15.10;;;5.13;;
48375;SDS011;34178;50.904;11.560;2023-11-21T06:12:46;10.90;;;4.35;;
48375;SDS011;34178;50.904;11.560;2023-11-21T06:15:12;9.65;;;4.68;;
48375;SDS011;34178;50.904;11.560;2023-11-21T06:17:41;12.37;;;4.93;;
48375;SDS011;34178;50.904;11.560;2023-11-21T06:20:08;14.43;;;5.90;;
48375;SDS011;34178;50.904;11.560;2023-11-21T06:22:39;11.80;;;6.00;;
48375;SDS011;34178;50.904;11.560;2023-11-21T06:25:06;17.80;;;7.68;;
48375;SDS011;34178;50.904;11.560;2023-11-21T06:27:37;15.73;;;8.13;;
48375;SDS011;34178;50.904;11.560;2023-11-21T06:30:10;12.52;;;6.25;;
48375;SDS011;34178;50.904;11.560;2023-11-21T06:32:37;12.85;;;6.13;;
48375;SDS011;34178;50.904;11.560;2023-11-21T06:35:04;15.18;;;8.20;;
48375;SDS011;34178;50.904;11.560;2023-11-21T06:37:31;20.15;;;10.32;;
48375;SDS011;34178;50.904;11.560;2023-11-21T06:39:58;14.10;;;9.00;;
48375;SDS011;34178;50.904;11.560;2023-11-21T06:42:24;16.85;;;9.00;;
48375;SDS011;34178;50.904;11.560;2023-11-21T06:44:50;19.55;;;9.40;;
48375;SDS011;34178;50.904;11.560;2023-11-21T06:47:17;17.83;;;9.23;;
48375;SDS011;34178;50.904;11.560;2023-11-21T06:49:43;13.55;;;7.57;;
48375;SDS011;34178;50.904;11.560;2023-11-21T06:52:09;12.80;;;5.38;;
48375;SDS011;34178;50.904;11.560;2023-11-21T06:54:34;11.70;;;5.45;;
48375;SDS011;34178;50.904;11.560;2023-11-21T06:57:01;10.35;;;5.13;;
48375;SDS011;34178;50.904;11.560;2023-11-21T06:59:30;14.65;;;7.22;;
48375;SDS011;34178;50.904;11.560;2023-11-21T07:01:56;17.10;;;7.38;;
48375;SDS011;34178;50.904;11.560;2023-11-21T07:04:22;10.68;;;6.40;;
48375;SDS011;34178;50.904;11.560;2023-11-21T07:06:50;14.90;;;5.47;;
48375;SDS011;34178;50.904;11.560;2023-11-21T07:09:16;13.18;;;5.70;;
48375;SDS011;34178;50.904;11.560;2023-11-21T07:11:42;12.27;;;6.10;;
48375;SDS011;34178;50.904;11.560;2023-11-21T07:14:08;16.33;;;6.85;;
48375;SDS011;34178;50.904;11.560;2023-11-21T07:16:36;15.07;;;6.95;;
48375;SDS011;34178;50.904;11.560;2023-11-21T07:19:03;11.77;;;5.50;;
48375;SDS011;34178;50.904;11.560;2023-11-21T07:21:31;13.95;;;6.80;;
48375;SDS011;34178;50.904;11.560;2023-11-21T07:23:58;12.15;;;5.80;;
48375;SDS011;34178;50.904;11.560;2023-11-21T07:26:27;9.95;;;5.93;;
48375;SDS011;34178;50.904;11.560;2023-11-21T07:28:53;9.95;;;4.85;;
48375;SDS011;34178;50.904;11.560;2023-11-21T07:31:19;12.07;;;5.43;;
48375;SDS011;34178;50.904;11.560;2023-11-21T07:33:45;9.45;;;5.38;;
48375;SDS011;34178;50.904;11.560;2023-11-21T07:36:14;10.90;;;5.68;;
48375;SDS011;34178;50.904;11.560;2023-11-21T07:38:41;15.05;;;5.88;;
48375;SDS011;34178;50.904;11.560;2023-11-21T07:41:07;11.15;;;5.40;;
48375;SDS011;34178;50.904;11.560;2023-11-21T07:43:34;14.02;;;6.85;;
48375;SDS011;34178;50.904;11.560;2023-11-21T07:46:01;13.40;;;6.50;;
48375;SDS011;34178;50.904;11.560;2023-11-21T07:48:28;14.43;;;6.28;;
48375;SDS011;34178;50.904;11.560;2023-11-21T07:50:57;20.30;;;9.23;;
48375;SDS011;34178;50.904;11.560;2023-11-21T07:53:23;15.68;;;7.45;;
48375;SDS011;34178;50.904;11.560;2023-11-21T07:55:50;14.80;;;8.02;;
48375;SDS011;34178;50.904;11.560;2023-11-21T07:58:17;17.25;;;10.10;;
48375;SDS011;34178;50.904;11.560;2023-11-21T08:00:43;15.18;;;8.15;;
48375;SDS011;34178;50.904;11.560;2023-11-21T08:03:09;13.52;;;7.53;;
48375;SDS011;34178;50.904;11.560;2023-11-21T08:05:36;13.80;;;7.25;;
48375;SDS011;34178;50.904;11.560;2023-11-21T08:08:02;15.10;;;7.25;;
48375;SDS011;34178;50.904;11.560;2023-11-21T08:10:28;13.75;;;7.88;;
48375;SDS011;34178;50.904;11.560;2023-11-21T08:12:54;14.27;;;7.30;;
48375;SDS011;34178;50.904;11.560;2023-11-21T08:15:20;17.42;;;7.40;;
48375;SDS011;34178;50.904;11.560;2023-11-21T08:17:46;11.45;;;6.93;;
48375;SDS011;34178;50.904;11.560;2023-11-21T08:20:12;14.20;;;8.38;;
48375;SDS011;34178;50.904;11.560;2023-11-21T08:22:41;14.30;;;8.82;;
48375;SDS011;34178;50.904;11.560;2023-11-21T08:25:10;20.70;;;9.93;;
48375;SDS011;34178;50.904;11.560;2023-11-21T08:27:36;17.15;;;9.00;;
48375;SDS011;34178;50.904;11.560;2023-11-21T08:30:02;16.88;;;9.95;;
48375;SDS011;34178;50.904;11.560;2023-11-21T08:32:29;18.05;;;8.85;;
48375;SDS011;34178;50.904;11.560;2023-11-21T08:34:58;15.87;;;8.07;;
48375;SDS011;34178;50.904;11.560;2023-11-21T08:37:24;14.52;;;8.15;;
48375;SDS011;34178;50.904;11.560;2023-11-21T08:39:52;16.73;;;8.00;;
48375;SDS011;34178;50.904;11.560;2023-11-21T08:42:18;13.50;;;7.72;;
48375;SDS011;34178;50.904;11.560;2023-11-21T08:44:44;13.38;;;6.97;;
48375;SDS011;34178;50.904;11.560;2023-11-21T08:47:10;12.68;;;6.65;;
48375;SDS011;34178;50.904;11.560;2023-11-21T08:49:35;13.32;;;7.07;;
48375;SDS011;34178;50.904;11.560;2023-11-21T08:52:01;13.48;;;7.13;;
48375;SDS011;34178;50.904;11.560;2023-11-21T08:54:27;13.25;;;6.32;;
48375;SDS011;34178;50.904;11.560;2023-11-21T08:56:53;15.48;;;7.03;;
48375;SDS011;34178;50.904;11.560;2023-11-21T08:59:20;13.60;;;7.18;;
48375;SDS011;34178;50.904;11.560;2023-11-21T09:01:46;13.02;;;7.13;;
48375;SDS011;34178;50.904;11.560;2023-11-21T09:04:12;15.23;;;6.85;;
48375;SDS011;34178;50.904;11.560;2023-11-21T09:06:38;14.10;;;7.38;;
48375;SDS011;34178;50.904;11.560;2023-11-21T09:09:05;15.07;;;8.02;;
48375;SDS011;34178;50.904;11.560;2023-11-21T09:11:31;14.52;;;8.48;;
48375;SDS011;34178;50.904;11.560;2023-11-21T09:13:59;15.48;;;8.85;;
48375;SDS011;34178;50.904;11.560;2023-11-21T09:16:25;15.18;;;7.80;;
48375;SDS011;34178;50.904;11.560;2023-11-21T09:18:51;15.23;;;8.65;;
48375;SDS011;34178;50.904;11.560;2023-11-21T09:21:16;18.65;;;9.13;;
48375;SDS011;34178;50.904;11.560;2023-11-21T09:23:44;16.67;;;8.65;;
48375;SDS011;34178;50.904;11.560;2023-11-21T09:26:09;18.23;;;8.65;;
48375;SDS011;34178;50.904;11.560;2023-11-21T09:28:35;16.90;;;8.73;;
48375;SDS011;34178;50.904;11.560;2023-11-21T09:31:06;14.88;;;9.25;;
48375;SDS011;34178;50.904;11.560;2023-11-21T09:33:34;14.23;;;8.25;;
48375;SDS011;34178;50.904;11.560;2023-11-21T09:36:00;13.35;;;7.85;;
48375;SDS011;34178;50.904;11.560;2023-11-21T09:38:26;20.83;;;9.48;;
48375;SDS011;34178;50.904;11.560;2023-11-21T09:40:53;17.73;;;8.07;;
48375;SDS011;34178;50.904;11.560;2023-11-21T09:43:22;18.80;;;10.02;;
48375;SDS011;34178;50.904;11.560;2023-11-21T09:45:50;17.38;;;9.63;;
48375;SDS011;34178;50.904;11.560;2023-11-21T09:48:23;18.77;;;9.95;;
48375;SDS011;34178;50.904;11.560;2023-11-21T09:50:50;15.63;;;7.93;;
48375;SDS011;34178;50.904;11.560;2023-11-21T09:53:21;14.20;;;7.65;;
48375;SDS011;34178;50.904;11.560;2023-11-21T09:55:52;15.93;;;8.85;;
48375;SDS011;34178;50.904;11.560;2023-11-21T09:58:19;19.90;;;11.63;;
48375;SDS011;34178;50.904;11.560;2023-11-21T10:00:46;19.70;;;9.85;;
48375;SDS011;34178;50.904;11.560;2023-11-21T10:03:14;19.08;;;9.63;;
48375;SDS011;34178;50.904;11.560;2023-11-21T10:05:42;14.38;;;8.77;;
48375;SDS011;34178;50.904;11.560;2023-11-21T10:08:09;15.68;;;8.18;;
48375;SDS011;34178;50.904;11.560;2023-11-21T10:10:43;14.82;;;7.05;;
48375;SDS011;34178;50.904;11.560;2023-11-21T10:13:11;14.40;;;8.23;;
48375;SDS011;34178;50.904;11.560;2023-11-21T10:15:41;16.95;;;6.80;;
48375;SDS011;34178;50.904;11.560;2023-11-21T10:18:13;12.13;;;6.25;;
48375;SDS011;34178;50.904;11.560;2023-11-21T10:20:43;11.27;;;6.55;;
48375;SDS011;34178;50.904;11.560;2023-11-21T10:23:11;11.00;;;6.15;;
48375;SDS011;34178;50.904;11.560;2023-11-21T10:25:38;12.48;;;6.13;;
48375;SDS011;34178;50.904;11.560;2023-11-21T10:28:04;13.32;;;6.25;;
48375;SDS011;34178;50.904;11.560;2023-11-21T10:30:39;10.95;;;6.43;;
48375;SDS011;34178;50.904;11.560;2023-11-21T10:33:05;10.52;;;6.07;;
48375;SDS011;34178;50.904;11.560;2023-11-21T10:35:45;11.25;;;5.78;;
48375;SDS011;34178;50.904;11.560;2023-11-21T10:38:16;12.93;;;6.83;;
48375;SDS011;34178;50.904;11.560;2023-11-21T10:40:42;15.65;;;7.32;;
48375;SDS011;34178;50.904;11.560;2023-11-21T10:43:10;13.82;;;7.25;;
48375;SDS011;34178;50.904;11.560;2023-11-21T10:45:39;15.98;;;7.65;;
48375;SDS011;34178;50.904;11.560;2023-11-21T10:48:10;20.63;;;7.93;;
48375;SDS011;34178;50.904;11.560;2023-11-21T10:50:40;13.68;;;8.07;;
48375;SDS011;34178;50.904;11.560;2023-11-21T10:53:06;19.13;;;8.90;;
48375;SDS011;34178;50.904;11.560;2023-11-21T10:55:33;18.15;;;9.15;;
48375;SDS011;34178;50.904;11.560;2023-11-21T10:58:00;19.70;;;9.82;;
48375;SDS011;34178;50.904;11.560;2023-11-21T11:00:29;18.13;;;9.88;;
48375;SDS011;34178;50.904;11.560;2023-11-21T11:02:55;19.17;;;9.35;;
48375;SDS011;34178;50.904;11.560;2023-11-21T11:05:30;18.67;;;9.50;;
48375;SDS011;34178;50.904;11.560;2023-11-21T11:08:08;70.03;;;35.58;;
48375;SDS011;34178;50.904;11.560;2023-11-21T11:10:37;23.77;;;11.73;;
48375;SDS011;34178;50.904;11.560;2023-11-21T11:13:03;24.25;;;11.60;;
48375;SDS011;34178;50.904;11.560;2023-11-21T11:15:31;34.83;;;16.58;;
48375;SDS011;34178;50.904;11.560;2023-11-21T11:17:58;31.25;;;14.63;;
48375;SDS011;34178;50.904;11.560;2023-11-21T11:20:43;33.80;;;17.80;;
48375;SDS011;34178;50.904;11.560;2023-11-21T11:26:24;31.85;;;14.77;;
48375;SDS011;34178;50.904;11.560;2023-11-21T11:29:05;25.67;;;12.52;;
48375;SDS011;34178;50.904;11.560;2023-11-21T11:34:50;28.25;;;12.98;;
48375;SDS011;34178;50.904;11.560;2023-11-21T11:37:25;29.38;;;13.73;;
48375;SDS011;34178;50.904;11.560;2023-11-21T11:39:50;34.70;;;14.30;;
48375;SDS011;34178;50.904;11.560;2023-11-21T11:42:17;30.77;;;13.43;;
48375;SDS011;34178;50.904;11.560;2023-11-21T11:49:56;24.27;;;12.35;;
48375;SDS011;34178;50.904;11.560;2023-11-21T11:55:07;23.17;;;11.82;;
48375;SDS011;34178;50.904;11.560;2023-11-21T11:57:38;21.98;;;11.60;;
48375;SDS011;34178;50.904;11.560;2023-11-21T12:02:56;25.70;;;11.70;;
48375;SDS011;34178;50.904;11.560;2023-11-21T12:05:25;24.60;;;12.15;;
48375;SDS011;34178;50.904;11.560;2023-11-21T12:07:56;18.00;;;9.73;;
48375;SDS011;34178;50.904;11.560;2023-11-21T12:10:26;21.63;;;10.95;;
48375;SDS011;34178;50.904;11.560;2023-11-21T12:12:57;25.48;;;11.23;;
48375;SDS011;34178;50.904;11.560;2023-11-21T12:15:26;22.42;;;11.38;;
48375;SDS011;34178;50.904;11.560;2023-11-21T12:17:54;23.45;;;11.05;;
48375;SDS011;34178;50.904;11.560;2023-11-21T12:20:20;24.05;;;12.45;;
48375;SDS011;34178;50.904;11.560;2023-11-21T12:22:53;21.97;;;11.73;;
48375;SDS011;34178;50.904;11.560;2023-11-21T12:25:21;27.02;;;12.68;;
48375;SDS011;34178;50.904;11.560;2023-11-21T12:27:54;21.73;;;11.23;;
48375;SDS011;34178;50.904;11.560;2023-11-21T12:30:22;21.02;;;10.52;;
48375;SDS011;34178;50.904;11.560;2023-11-21T12:32:52;18.05;;;10.57;;
48375;SDS011;34178;50.904;11.560;2023-11-21T12:35:26;20.52;;;11.05;;
48375;SDS011;34178;50.904;11.560;2023-11-21T12:37:57;22.27;;;11.73;;
48375;SDS011;34178;50.904;11.560;2023-11-21T12:40:23;19.08;;;8.43;;
48375;SDS011;34178;50.904;11.560;2023-11-21T12:42:54;13.35;;;7.53;;
48375;SDS011;34178;50.904;11.560;2023-11-21T12:45:23;9.52;;;4.90;;
48375;SDS011;34178;50.904;11.560;2023-11-21T12:50:20;10.82;;;4.88;;
48375;SDS011;34178;50.904;11.560;2023-11-21T12:52:54;7.72;;;4.30;;
48375;SDS011;34178;50.904;11.560;2023-11-21T12:57:52;10.13;;;4.25;;
48375;SDS011;34178;50.904;11.560;2023-11-21T13:00:35;8.43;;;4.15;;
48375;SDS011;34178;50.904;11.560;2023-11-21T13:03:07;11.23;;;4.95;;
48375;SDS011;34178;50.904;11.560;2023-11-21T13:05:38;10.98;;;4.45;;
48375;SDS011;34178;50.904;11.560;2023-11-21T13:08:09;8.82;;;3.97;;
48375;SDS011;34178;50.904;11.560;2023-11-21T13:10:38;8.38;;;3.70;;
48375;SDS011;34178;50.904;11.560;2023-11-21T13:13:07;7.47;;;4.00;;
48375;SDS011;34178;50.904;11.560;2023-11-21T13:15:34;9.15;;;4.43;;
48375;SDS011;34178;50.904;11.560;2023-11-21T13:18:05;10.30;;;5.25;;
48375;SDS011;34178;50.904;11.560;2023-11-21T13:20:32;9.93;;;5.25;;
48375;SDS011;34178;50.904;11.560;2023-11-21T13:22:57;12.73;;;6.55;;
48375;SDS011;34178;50.904;11.560;2023-11-21T13:25:29;17.23;;;8.93;;
48375;SDS011;34178;50.904;11.560;2023-11-21T13:27:59;18.92;;;10.30;;
48375;SDS011;34178;50.904;11.560;2023-11-21T13:30:26;20.42;;;11.13;;
48375;SDS011;34178;50.904;11.560;2023-11-21T13:32:55;22.98;;;11.70;;
48375;SDS011;34178;50.904;11.560;2023-11-21T13:35:27;20.25;;;10.45;;
48375;SDS011;34178;50.904;11.560;2023-11-21T13:38:06;20.63;;;10.35;;
48375;SDS011;34178;50.904;11.560;2023-11-21T13:40:32;20.77;;;11.63;;
48375;SDS011;34178;50.904;11.560;2023-11-21T13:43:08;18.63;;;9.82;;
48375;SDS011;34178;50.904;11.560;2023-11-21T13:45:41;18.52;;;10.05;;
48375;SDS011;34178;50.904;11.560;2023-11-21T13:48:08;17.77;;;9.57;;
48375;SDS011;34178;50.904;11.560;2023-11-21T13:50:36;19.23;;;10.02;;
48375;SDS011;34178;50.904;11.560;2023-11-21T13:53:02;18.23;;;10.02;;
48375;SDS011;34178;50.904;11.560;2023-11-21T13:55:35;17.42;;;9.70;;
48375;SDS011;34178;50.904;11.560;2023-11-21T13:58:02;21.15;;;11.52;;
48375;SDS011;34178;50.904;11.560;2023-11-21T14:00:29;24.10;;;13.25;;
48375;SDS011;34178;50.904;11.560;2023-11-21T14:03:10;24.45;;;13.82;;
48375;SDS011;34178;50.904;11.560;2023-11-21T14:05:49;26.05;;;14.15;;
48375;SDS011;34178;50.904;11.560;2023-11-21T14:08:20;37.03;;;19.27;;
48375;SDS011;34178;50.904;11.560;2023-11-21T14:10:48;24.98;;;14.00;;
48375;SDS011;34178;50.904;11.560;2023-11-21T14:13:20;26.98;;;14.98;;
48375;SDS011;34178;50.904;11.560;2023-11-21T14:15:48;23.52;;;13.23;;
48375;SDS011;34178;50.904;11.560;2023-11-21T14:18:16;24.90;;;14.13;;
48375;SDS011;34178;50.904;11.560;2023-11-21T14:20:51;19.63;;;11.93;;
48375;SDS011;34178;50.904;11.560;2023-11-21T14:23:16;22.30;;;12.15;;
48375;SDS011;34178;50.904;11.560;2023-11-21T14:25:43;19.95;;;12.60;;
48375;SDS011;34178;50.904;11.560;2023-11-21T14:28:08;22.33;;;12.73;;
48375;SDS011;34178;50.904;11.560;2023-11-21T14:30:37;21.95;;;12.30;;
48375;SDS011;34178;50.904;11.560;2023-11-21T14:33:04;26.95;;;14.10;;
48375;SDS011;34178;50.904;11.560;2023-11-21T14:35:31;29.27;;;15.05;;
48375;SDS011;34178;50.904;11.560;2023-11-21T14:37:58;28.25;;;14.55;;
48375;SDS011;34178;50.904;11.560;2023-11-21T14:40:25;26.25;;;13.10;;
48375;SDS011;34178;50.904;11.560;2023-11-21T14:42:54;25.10;;;12.90;;
48375;SDS011;34178;50.904;11.560;2023-11-21T14:45:22;24.13;;;12.13;;
48375;SDS011;34178;50.904;11.560;2023-11-21T14:47:51;24.73;;;13.27;;
48375;SDS011;34178;50.904;11.560;2023-11-21T14:50:30;24.63;;;13.07;;
48375;SDS011;34178;50.904;11.560;2023-11-21T14:53:12;25.88;;;12.30;;